createdAt,value
2022-11-09T00:00:45.274Z,11.70
2022-11-09T00:03:13.096Z,11.70
2022-11-09T00:05:40.186Z,11.60
2022-11-09T00:08:07.725Z,11.60
2022-11-09T00:10:34.643Z,11.50
2022-11-09T00:13:01.706Z,11.50
2022-11-09T00:15:34.189Z,11.50
2022-11-09T00:18:02.954Z,11.50
2022-11-09T00:20:29.964Z,11.50
2022-11-09T00:23:00.372Z,11.40
2022-11-09T00:25:37.485Z,11.30
2022-11-09T00:28:04.675Z,11.20
2022-11-09T00:30:31.688Z,11.20
2022-11-09T00:33:02.450Z,11.10
2022-11-09T00:35:29.454Z,11.00
2022-11-09T00:37:56.354Z,11.00
2022-11-09T00:40:23.376Z,11.00
2022-11-09T00:42:50.436Z,11.10
2022-11-09T00:45:17.742Z,11.10
2022-11-09T00:47:44.791Z,11.10
2022-11-09T00:50:13.742Z,11.10
2022-11-09T00:52:41.755Z,11.00
2022-11-09T00:55:09.040Z,11.00
2022-11-09T00:57:36.044Z,11.00
2022-11-09T01:00:05.608Z,11.00
2022-11-09T01:02:35.015Z,11.00
2022-11-09T01:05:01.892Z,11.00
2022-11-09T01:07:28.864Z,11.00
2022-11-09T01:09:55.784Z,10.90
2022-11-09T01:12:22.745Z,10.90
2022-11-09T01:14:49.672Z,10.80
2022-11-09T01:17:16.516Z,10.90
2022-11-09T01:19:43.810Z,10.80
2022-11-09T01:22:13.015Z,10.80
2022-11-09T01:24:39.972Z,10.80
2022-11-09T01:27:07.264Z,10.80
2022-11-09T01:29:37.288Z,10.80
2022-11-09T01:32:04.368Z,10.80
2022-11-09T01:34:31.397Z,10.90
2022-11-09T01:36:59.148Z,10.80
2022-11-09T01:39:26.157Z,10.80
2022-11-09T01:41:53.120Z,10.80
2022-11-09T01:44:20.219Z,10.80
2022-11-09T01:46:47.382Z,10.70
2022-11-09T01:49:26.626Z,10.70
2022-11-09T01:51:55.062Z,10.70
2022-11-09T01:54:26.613Z,10.70
2022-11-09T01:56:55.350Z,10.70
2022-11-09T01:59:22.972Z,10.60
2022-11-09T02:01:49.855Z,10.60
2022-11-09T02:04:20.060Z,10.50
2022-11-09T02:06:47.034Z,10.50
2022-11-09T02:09:22.095Z,10.50
2022-11-09T02:11:49.106Z,10.50
2022-11-09T02:14:15.999Z,10.50
2022-11-09T02:16:43.176Z,10.50
2022-11-09T02:19:10.094Z,10.50
2022-11-09T02:21:36.980Z,10.50
2022-11-09T02:24:04.099Z,10.50
2022-11-09T02:26:36.678Z,10.50
2022-11-09T02:29:06.025Z,10.50
2022-11-09T02:31:34.580Z,10.50
2022-11-09T02:34:23.219Z,10.50
2022-11-09T02:36:52.476Z,10.50
2022-11-09T02:39:20.395Z,10.50
2022-11-09T02:41:48.522Z,10.40
2022-11-09T02:44:16.394Z,10.40
2022-11-09T02:46:44.752Z,10.40
2022-11-09T02:49:11.747Z,10.40
2022-11-09T02:51:38.964Z,10.40
2022-11-09T02:54:05.993Z,10.40
2022-11-09T02:56:32.934Z,10.40
2022-11-09T02:58:59.779Z,10.40
2022-11-09T03:01:26.923Z,10.50
2022-11-09T03:03:54.385Z,10.40
2022-11-09T03:06:21.303Z,10.40
2022-11-09T03:08:48.245Z,10.40
2022-11-09T03:11:15.482Z,10.40
2022-11-09T03:13:42.350Z,10.50
2022-11-09T03:16:09.487Z,10.40
2022-11-09T03:18:36.562Z,10.40
2022-11-09T03:21:03.978Z,10.40
2022-11-09T03:23:31.177Z,10.30
2022-11-09T03:25:58.074Z,10.40
2022-11-09T03:28:24.981Z,10.50
2022-11-09T03:30:51.900Z,10.50
2022-11-09T03:33:19.125Z,10.60
2022-11-09T03:35:46.165Z,10.40
2022-11-09T03:38:13.609Z,10.40
2022-11-09T03:40:40.558Z,10.40
2022-11-09T03:43:07.469Z,10.40
2022-11-09T03:45:34.391Z,10.40
2022-11-09T03:48:01.367Z,10.50
2022-11-09T03:50:28.836Z,10.50
2022-11-09T03:52:56.636Z,10.50
2022-11-09T03:55:23.807Z,10.50
2022-11-09T03:57:50.714Z,10.50
2022-11-09T04:00:18.376Z,10.40
2022-11-09T04:02:45.285Z,10.40
2022-11-09T04:05:12.406Z,10.30
2022-11-09T04:07:39.591Z,10.30
2022-11-09T04:10:06.706Z,10.40
2022-11-09T04:12:33.618Z,10.40
2022-11-09T04:15:00.580Z,10.40
2022-11-09T04:17:27.507Z,10.40
2022-11-09T04:19:54.393Z,10.30
2022-11-09T04:22:21.257Z,10.30
2022-11-09T04:24:48.283Z,10.30
2022-11-09T04:27:15.655Z,10.30
2022-11-09T04:29:42.803Z,10.30
2022-11-09T04:32:09.737Z,10.30
2022-11-09T04:34:36.605Z,10.20
2022-11-09T04:37:03.505Z,10.20
2022-11-09T04:39:30.476Z,10.20
2022-11-09T04:41:58.024Z,10.20
2022-11-09T04:44:25.110Z,10.10
2022-11-09T04:46:53.569Z,10.00
2022-11-09T04:49:20.595Z,10.00
2022-11-09T04:51:47.539Z,10.10
2022-11-09T04:54:14.485Z,10.20
2022-11-09T04:56:41.481Z,10.30
2022-11-09T04:59:08.438Z,10.30
2022-11-09T05:01:35.326Z,10.30
2022-11-09T05:04:02.248Z,10.30
2022-11-09T05:06:32.251Z,10.20
2022-11-09T05:08:59.799Z,10.20
2022-11-09T05:11:27.052Z,10.10
2022-11-09T05:13:54.044Z,10.10
2022-11-09T05:16:21.080Z,10.00
2022-11-09T05:18:48.187Z,10.00
2022-11-09T05:21:15.103Z,9.90
2022-11-09T05:24:00.554Z,9.90
2022-11-09T05:26:31.967Z,10.00
2022-11-09T05:28:59.425Z,10.00
2022-11-09T05:31:26.853Z,10.10
2022-11-09T05:33:55.380Z,10.10
2022-11-09T05:36:22.307Z,10.10
2022-11-09T05:38:49.625Z,10.10
2022-11-09T05:41:16.589Z,10.10
2022-11-09T05:43:45.022Z,10.00
2022-11-09T05:46:15.222Z,9.90
2022-11-09T05:48:42.405Z,10.00
2022-11-09T05:51:09.716Z,9.90
2022-11-09T05:53:36.661Z,9.80
2022-11-09T05:56:10.637Z,9.80
2022-11-09T05:58:38.964Z,9.90
2022-11-09T06:01:06.549Z,9.90
2022-11-09T06:03:33.439Z,9.90
2022-11-09T06:06:06.832Z,10.00
2022-11-09T06:08:35.226Z,10.00
2022-11-09T06:11:06.554Z,10.00
2022-11-09T06:13:33.474Z,10.00
2022-11-09T06:16:00.993Z,10.00
2022-11-09T06:18:28.567Z,10.00
2022-11-09T06:20:55.940Z,10.00
2022-11-09T06:23:26.083Z,10.10
2022-11-09T06:25:53.661Z,10.10
2022-11-09T06:28:20.711Z,10.00
2022-11-09T06:30:47.677Z,10.00
2022-11-09T06:33:14.566Z,10.00
2022-11-09T06:35:41.810Z,10.10
2022-11-09T06:38:09.083Z,10.00
2022-11-09T06:40:37.298Z,10.10
2022-11-09T06:43:04.171Z,10.10
2022-11-09T06:45:31.391Z,10.20
2022-11-09T06:47:58.669Z,10.30
2022-11-09T06:50:26.078Z,10.40
2022-11-09T06:52:55.951Z,10.50
2022-11-09T06:55:22.815Z,10.60
2022-11-09T06:57:52.379Z,10.70
2022-11-09T07:00:20.637Z,10.80
2022-11-09T07:02:47.540Z,10.90
2022-11-09T07:05:14.444Z,11.00
2022-11-09T07:07:44.256Z,11.10
2022-11-09T07:10:11.227Z,11.30
2022-11-09T07:12:38.136Z,11.50
2022-11-09T07:15:05.199Z,11.60
2022-11-09T07:17:32.450Z,11.90
2022-11-09T07:19:59.410Z,12.20
2022-11-09T07:22:29.547Z,12.60
2022-11-09T07:24:56.482Z,13.20
2022-11-09T07:27:27.471Z,13.90
2022-11-09T07:29:55.805Z,14.50
2022-11-09T07:32:35.502Z,14.90
2022-11-09T07:35:10.027Z,15.20
2022-11-09T07:38:02.645Z,15.80
2022-11-09T07:40:29.786Z,16.70
2022-11-09T07:43:00.315Z,18.20
2022-11-09T07:45:27.953Z,19.60
2022-11-09T07:47:55.683Z,21.00
2022-11-09T07:50:22.623Z,22.20
2022-11-09T07:52:49.788Z,23.20
2022-11-09T07:55:17.816Z,24.00
2022-11-09T07:57:44.823Z,24.80
2022-11-09T08:00:12.317Z,25.30
2022-11-09T08:02:39.217Z,25.70
2022-11-09T08:05:06.647Z,26.10
2022-11-09T08:07:34.551Z,26.50
2022-11-09T08:10:01.419Z,26.70
2022-11-09T08:12:31.730Z,26.90
2022-11-09T08:15:04.024Z,27.10
2022-11-09T08:17:31.515Z,27.60
2022-11-09T08:19:58.391Z,28.20
2022-11-09T08:22:25.234Z,28.80
2022-11-09T08:24:52.265Z,29.40
2022-11-09T08:27:21.258Z,29.80
2022-11-09T08:29:48.114Z,30.20
2022-11-09T08:32:15.040Z,30.60
2022-11-09T08:34:42.108Z,31.00
2022-11-09T08:37:09.697Z,31.30
2022-11-09T08:39:36.911Z,31.40
2022-11-09T08:42:04.271Z,31.50
2022-11-09T08:44:31.504Z,31.40
2022-11-09T08:46:58.527Z,31.20
2022-11-09T08:49:25.636Z,31.30
2022-11-09T08:51:54.632Z,31.40
2022-11-09T08:54:21.510Z,31.50
2022-11-09T08:56:48.660Z,31.70
2022-11-09T08:59:15.547Z,32.00
2022-11-09T09:01:42.547Z,32.20
2022-11-09T09:04:09.545Z,32.50
2022-11-09T09:06:36.458Z,32.50
2022-11-09T09:09:03.482Z,32.60
2022-11-09T09:11:30.360Z,32.90
2022-11-09T09:14:00.386Z,33.40
2022-11-09T09:16:27.288Z,33.50
2022-11-09T09:18:55.441Z,33.40
2022-11-09T09:21:23.614Z,33.60
2022-11-09T09:23:50.963Z,34.00
2022-11-09T09:26:18.007Z,34.50
2022-11-09T09:28:45.807Z,34.70
2022-11-09T09:31:17.297Z,34.90
2022-11-09T09:33:45.744Z,35.10
2022-11-09T09:36:16.636Z,35.50
2022-11-09T09:38:43.521Z,36.10
2022-11-09T09:41:16.703Z,36.60
2022-11-09T09:43:44.327Z,37.10
2022-11-09T09:46:18.040Z,37.60
2022-11-09T09:48:52.076Z,37.70
2022-11-09T09:51:20.807Z,37.90
2022-11-09T09:53:53.466Z,38.00
2022-11-09T09:56:31.244Z,38.10
2022-11-09T09:59:16.848Z,38.50
2022-11-09T10:01:45.129Z,38.80
2022-11-09T10:04:18.245Z,38.60
2022-11-09T10:06:59.885Z,38.60
2022-11-09T10:09:47.467Z,38.30
2022-11-09T10:12:20.263Z,37.70
2022-11-09T10:14:47.210Z,37.70
2022-11-09T10:17:43.535Z,37.90
2022-11-09T10:20:31.789Z,38.10
2022-11-09T10:23:04.998Z,38.10
2022-11-09T10:25:57.907Z,38.40
2022-11-09T10:28:19.965Z,38.80
2022-11-09T10:30:47.100Z,38.90
2022-11-09T10:33:18.466Z,39.00
2022-11-09T10:35:46.431Z,39.30
2022-11-09T10:38:18.641Z,39.30
2022-11-09T10:40:57.460Z,39.10
2022-11-09T10:43:24.655Z,39.30
2022-11-09T10:46:04.905Z,39.60
2022-11-09T10:48:34.081Z,39.20
2022-11-09T10:51:02.691Z,39.00
2022-11-09T10:53:39.587Z,39.20
2022-11-09T10:56:20.760Z,39.30
2022-11-09T10:58:51.382Z,39.20
2022-11-09T11:01:25.606Z,39.00
2022-11-09T11:03:54.126Z,39.30
2022-11-09T11:06:41.399Z,39.30
2022-11-09T11:09:08.290Z,39.00
2022-11-09T11:11:36.911Z,39.00
2022-11-09T11:14:23.030Z,39.30
2022-11-09T11:16:52.677Z,39.50
2022-11-09T11:19:35.097Z,39.70
2022-11-09T11:22:11.153Z,39.80
2022-11-09T11:24:47.085Z,40.10
2022-11-09T11:27:21.951Z,40.60
2022-11-09T11:29:56.406Z,41.10
2022-11-09T11:32:23.336Z,41.20
2022-11-09T11:35:05.480Z,41.70
2022-11-09T11:37:41.465Z,42.20
2022-11-09T11:40:10.157Z,42.90
2022-11-09T11:42:40.546Z,43.20
2022-11-09T11:45:38.878Z,43.20
2022-11-09T11:48:07.799Z,42.80
2022-11-09T11:50:49.079Z,42.80
2022-11-09T11:53:25.682Z,42.80
2022-11-09T11:56:08.062Z,43.10
2022-11-09T11:58:53.547Z,43.10
2022-11-09T12:01:40.072Z,43.30
2022-11-09T12:04:13.549Z,43.30
2022-11-09T12:06:58.782Z,43.50
2022-11-09T12:09:32.464Z,43.70
2022-11-09T12:12:08.534Z,43.90
2022-11-09T12:14:38.430Z,44.00
2022-11-09T12:17:08.363Z,43.90
2022-11-09T12:19:38.686Z,43.70
2022-11-09T12:22:12.091Z,43.40
2022-11-09T12:25:00.807Z,42.90
2022-11-09T12:27:46.992Z,42.50
2022-11-09T12:30:17.881Z,42.20
2022-11-09T12:32:52.794Z,42.10
2022-11-09T12:35:38.203Z,42.20
2022-11-09T12:38:19.047Z,42.50
2022-11-09T12:40:52.259Z,42.40
2022-11-09T12:43:31.181Z,42.90
2022-11-09T12:45:58.521Z,43.20
2022-11-09T12:48:25.753Z,43.50
2022-11-09T12:50:53.016Z,43.50
2022-11-09T12:53:20.543Z,43.40
2022-11-09T12:55:50.045Z,43.20
2022-11-09T12:58:24.570Z,42.80
2022-11-09T13:00:54.004Z,42.70
2022-11-09T13:03:24.528Z,42.00
2022-11-09T13:06:08.653Z,41.50
2022-11-09T13:08:35.802Z,41.20
2022-11-09T13:11:19.216Z,40.90
2022-11-09T13:13:46.411Z,40.90
2022-11-09T13:16:33.508Z,41.10
2022-11-09T13:19:00.653Z,41.30
2022-11-09T13:21:38.354Z,41.40
2022-11-09T13:24:31.427Z,41.50
2022-11-09T13:26:59.626Z,41.50
2022-11-09T13:29:26.631Z,41.40
2022-11-09T13:32:09.140Z,41.10
2022-11-09T13:34:50.721Z,40.90
2022-11-09T13:37:36.510Z,40.70
2022-11-09T13:40:22.165Z,40.30
2022-11-09T13:43:09.576Z,39.70
2022-11-09T13:45:44.364Z,39.30
2022-11-09T13:48:50.408Z,38.90
2022-11-09T13:51:20.637Z,38.60
2022-11-09T13:53:55.357Z,38.30
2022-11-09T13:56:52.940Z,38.00
2022-11-09T13:59:29.402Z,37.70
2022-11-09T14:02:30.257Z,36.90
2022-11-09T14:04:57.215Z,36.40
2022-11-09T14:07:40.611Z,35.70
2022-11-09T14:10:14.459Z,34.80
2022-11-09T14:13:03.903Z,33.70
2022-11-09T14:15:42.931Z,33.60
2022-11-09T14:18:15.509Z,33.60
2022-11-09T14:21:08.786Z,33.10
2022-11-09T14:23:35.996Z,32.20
2022-11-09T14:26:09.210Z,31.20
2022-11-09T14:28:39.292Z,30.40
2022-11-09T14:31:06.489Z,29.80
2022-11-09T14:33:41.103Z,29.30
2022-11-09T14:36:11.137Z,28.70
2022-11-09T14:41:50.197Z,28.10
2022-11-09T14:44:27.669Z,27.80
2022-11-09T14:46:55.343Z,27.60
2022-11-09T14:49:24.603Z,27.40
2022-11-09T14:51:51.746Z,27.30
2022-11-09T14:54:19.978Z,27.10
2022-11-09T14:56:47.037Z,26.80
2022-11-09T14:59:16.011Z,26.60
2022-11-09T15:01:56.531Z,26.40
2022-11-09T15:04:23.956Z,26.10
2022-11-09T15:06:52.056Z,25.80
2022-11-09T15:09:19.779Z,25.60
2022-11-09T15:11:47.025Z,25.40
2022-11-09T15:14:19.770Z,25.20
2022-11-09T15:16:47.131Z,24.90
2022-11-09T15:19:30.947Z,24.70
2022-11-09T15:21:58.054Z,24.60
2022-11-09T15:24:25.818Z,24.40
2022-11-09T15:26:53.116Z,24.20
2022-11-09T15:29:37.491Z,24.00
2022-11-09T15:32:10.719Z,23.80
2022-11-09T15:34:40.877Z,23.60
2022-11-09T15:37:20.026Z,23.50
2022-11-09T15:39:47.025Z,23.40
2022-11-09T15:42:14.382Z,23.30
2022-11-09T15:44:58.687Z,23.10
2022-11-09T15:47:42.039Z,23.00
2022-11-09T15:50:22.322Z,22.90
2022-11-09T15:52:51.352Z,22.70
2022-11-09T15:55:22.071Z,22.50
2022-11-09T15:57:50.117Z,22.30
2022-11-09T16:00:20.829Z,22.10
2022-11-09T16:02:48.341Z,22.00
2022-11-09T16:05:16.004Z,21.70
2022-11-09T16:07:53.311Z,21.50
2022-11-09T16:10:23.858Z,21.40
2022-11-09T16:12:56.229Z,21.30
2022-11-09T16:15:23.727Z,21.30
2022-11-09T16:17:51.439Z,21.30
2022-11-09T16:20:19.052Z,21.20
2022-11-09T16:22:46.289Z,21.20
2022-11-09T16:25:13.359Z,21.20
2022-11-09T16:27:50.040Z,21.10
2022-11-09T16:30:17.791Z,20.90
2022-11-09T16:32:44.883Z,20.80
2022-11-09T16:35:28.369Z,20.70
2022-11-09T16:37:56.203Z,20.60
2022-11-09T16:40:23.830Z,20.50
2022-11-09T16:42:54.693Z,20.40
2022-11-09T16:45:32.012Z,20.30
2022-11-09T16:48:01.571Z,20.20
2022-11-09T16:50:28.803Z,20.10
2022-11-09T16:52:55.870Z,20.00
2022-11-09T16:55:25.586Z,19.90
2022-11-09T16:57:52.834Z,19.80
2022-11-09T17:00:25.626Z,19.70
2022-11-09T17:03:07.623Z,19.60
2022-11-09T17:05:34.624Z,19.50
2022-11-09T17:08:01.625Z,19.40
2022-11-09T17:10:28.714Z,19.40
2022-11-09T17:12:55.739Z,19.30
2022-11-09T17:15:22.841Z,19.20
2022-11-09T17:17:49.762Z,19.10
2022-11-09T17:20:17.178Z,19.10
2022-11-09T17:22:46.302Z,19.00
2022-11-09T17:25:13.525Z,19.00
2022-11-09T17:27:40.516Z,18.90
2022-11-09T17:30:07.814Z,18.90
2022-11-09T17:32:35.356Z,18.80
2022-11-09T17:35:02.722Z,18.70
2022-11-09T17:37:30.134Z,18.50
2022-11-09T17:39:57.329Z,18.40
2022-11-09T17:42:24.197Z,18.20
2022-11-09T17:44:51.147Z,18.20
2022-11-09T17:47:20.726Z,18.10
2022-11-09T17:49:47.626Z,18.00
2022-11-09T17:52:23.648Z,17.90
2022-11-09T17:54:52.870Z,17.90
2022-11-09T17:57:22.291Z,17.80
2022-11-09T17:59:49.329Z,17.80
2022-11-09T18:02:16.302Z,17.70
2022-11-09T18:04:43.359Z,17.70
2022-11-09T18:07:14.308Z,17.60
2022-11-09T18:09:42.512Z,17.50
2022-11-09T18:12:09.765Z,17.40
2022-11-09T18:14:36.746Z,17.30
2022-11-09T18:17:03.796Z,17.20
2022-11-09T18:19:30.755Z,17.10
2022-11-09T18:22:01.139Z,17.10
2022-11-09T18:24:42.427Z,17.10
2022-11-09T18:27:09.471Z,17.10
2022-11-09T18:29:36.785Z,17.10
2022-11-09T18:32:03.932Z,17.00
2022-11-09T18:34:30.893Z,16.90
2022-11-09T18:36:57.924Z,16.90
2022-11-09T18:39:32.406Z,16.80
2022-11-09T18:42:00.689Z,16.80
2022-11-09T18:44:27.708Z,16.80
2022-11-09T18:46:54.628Z,16.80
2022-11-09T18:49:21.933Z,16.70
2022-11-09T18:51:49.081Z,16.50
2022-11-09T18:54:17.662Z,16.50
2022-11-09T18:56:46.136Z,16.30
2022-11-09T18:59:47.984Z,16.30
2022-11-09T19:02:17.929Z,16.30
2022-11-09T19:04:47.846Z,16.20
2022-11-09T19:07:14.948Z,16.10
2022-11-09T19:09:42.512Z,16.00
2022-11-09T19:12:10.331Z,15.90
2022-11-09T19:14:41.233Z,15.80
2022-11-09T19:17:13.429Z,15.70
2022-11-09T19:19:43.179Z,15.60
2022-11-09T19:22:13.320Z,15.50
2022-11-09T19:24:40.269Z,15.40
2022-11-09T19:27:07.136Z,15.40
2022-11-09T19:29:34.008Z,15.30
2022-11-09T19:32:01.016Z,15.40
2022-11-09T19:34:28.303Z,15.40
2022-11-09T19:36:58.170Z,15.40
2022-11-09T19:39:28.392Z,15.40
2022-11-09T19:41:59.548Z,15.40
2022-11-09T19:44:26.725Z,15.30
2022-11-09T19:46:54.039Z,15.30
2022-11-09T19:49:21.015Z,15.40
2022-11-09T19:51:48.072Z,15.20
2022-11-09T19:54:15.800Z,15.10
2022-11-09T19:56:42.704Z,15.20
2022-11-09T19:59:11.080Z,15.10
2022-11-09T20:01:38.067Z,15.10
2022-11-09T20:04:09.944Z,15.10
2022-11-09T20:06:38.223Z,15.10
2022-11-09T20:09:05.292Z,15.10
2022-11-09T20:11:50.829Z,15.10
2022-11-09T20:14:18.583Z,15.10
2022-11-09T20:16:48.009Z,15.00
2022-11-09T20:19:15.266Z,15.00
2022-11-09T20:21:44.778Z,14.90
2022-11-09T20:24:12.628Z,14.90
2022-11-09T20:26:40.547Z,14.80
2022-11-09T20:29:07.562Z,14.80
2022-11-09T20:31:34.633Z,14.70
2022-11-09T20:34:02.701Z,14.60
2022-11-09T20:36:29.833Z,14.60
2022-11-09T20:38:56.889Z,14.50
2022-11-09T20:41:25.573Z,14.50
2022-11-09T20:43:52.923Z,14.50
2022-11-09T20:46:21.384Z,14.50
2022-11-09T20:48:56.164Z,14.50
2022-11-09T20:51:23.662Z,14.50
2022-11-09T20:53:50.918Z,14.50
2022-11-09T20:56:18.362Z,14.40
2022-11-09T20:58:45.331Z,14.30
2022-11-09T21:01:19.367Z,14.20
2022-11-09T21:03:46.759Z,14.20
2022-11-09T21:06:13.898Z,14.10
2022-11-09T21:08:43.455Z,14.10
2022-11-09T21:11:12.721Z,14.20
2022-11-09T21:13:41.788Z,14.10
2022-11-09T21:16:09.671Z,14.10
2022-11-09T21:18:39.058Z,14.10
2022-11-09T21:21:10.130Z,14.10
2022-11-09T21:23:55.809Z,14.10
2022-11-09T21:26:51.552Z,14.00
2022-11-09T21:29:39.640Z,13.90
2022-11-09T21:32:24.814Z,13.80
2022-11-09T21:34:51.742Z,13.80
2022-11-09T21:37:18.692Z,13.70
2022-11-09T21:39:45.578Z,13.60
2022-11-09T21:42:13.477Z,13.60
2022-11-09T21:44:40.566Z,13.60
2022-11-09T21:47:07.735Z,13.70
2022-11-09T21:49:35.468Z,13.60
2022-11-09T21:52:03.569Z,13.60
2022-11-09T21:54:30.683Z,13.50
2022-11-09T21:56:57.723Z,13.40
2022-11-09T21:59:24.599Z,13.40
2022-11-09T22:01:52.278Z,13.40
2022-11-09T22:04:19.262Z,13.30
2022-11-09T22:06:46.314Z,13.30
2022-11-09T22:09:14.740Z,13.20
2022-11-09T22:12:00.320Z,13.10
2022-11-09T22:14:45.707Z,13.10
2022-11-09T22:17:12.778Z,13.00
2022-11-09T22:20:00.489Z,12.90
2022-11-09T22:22:31.027Z,12.90
2022-11-09T22:24:59.103Z,12.90
2022-11-09T22:27:27.942Z,12.80
2022-11-09T22:29:55.377Z,12.80
2022-11-09T22:32:22.505Z,12.80
2022-11-09T22:34:49.445Z,12.70
2022-11-09T22:37:16.612Z,12.70
2022-11-09T22:39:47.249Z,12.70
2022-11-09T22:42:14.822Z,12.70
2022-11-09T22:44:42.063Z,12.70
2022-11-09T22:47:08.939Z,12.60
2022-11-09T22:49:37.053Z,12.50
2022-11-09T22:52:04.392Z,12.50
2022-11-09T22:54:32.446Z,12.50
2022-11-09T22:57:02.206Z,12.40
2022-11-09T22:59:29.026Z,12.40
2022-11-09T23:01:55.967Z,12.40
2022-11-09T23:04:22.902Z,12.40
2022-11-09T23:06:49.760Z,12.30
2022-11-09T23:09:16.768Z,12.30
2022-11-09T23:11:43.652Z,12.30
2022-11-09T23:14:12.734Z,12.30
2022-11-09T23:16:39.791Z,12.20
2022-11-09T23:19:06.712Z,12.20
2022-11-09T23:21:34.435Z,12.20
2022-11-09T23:24:02.477Z,12.20
2022-11-09T23:26:29.556Z,12.10
2022-11-09T23:28:56.668Z,12.00
2022-11-09T23:31:24.611Z,12.00
2022-11-09T23:33:52.119Z,12.00
2022-11-09T23:36:20.649Z,11.90
2022-11-09T23:38:47.677Z,12.00
2022-11-09T23:41:17.807Z,12.00
2022-11-09T23:43:48.910Z,12.00
2022-11-09T23:46:16.627Z,11.90
2022-11-09T23:48:44.215Z,11.90
2022-11-09T23:51:11.270Z,11.90
2022-11-09T23:53:38.168Z,11.90
2022-11-09T23:56:06.246Z,11.80
2022-11-09T23:58:33.181Z,11.70
